createdAt,value
2018-12-03T00:01:01.624Z,99.99
2018-12-03T00:02:11.871Z,99.99
2018-12-03T00:03:22.014Z,99.99
2018-12-03T00:04:32.153Z,99.99
2018-12-03T00:05:43.277Z,99.99
2018-12-03T00:06:53.408Z,99.99
2018-12-03T00:08:05.610Z,99.99
2018-12-03T00:09:15.726Z,99.99
2018-12-03T00:10:25.645Z,99.99
2018-12-03T00:11:35.774Z,99.99
2018-12-03T00:12:45.963Z,99.99
2018-12-03T00:13:56.094Z,99.99
2018-12-03T00:15:06.240Z,99.99
2018-12-03T00:16:16.388Z,99.99
2018-12-03T00:17:26.535Z,99.99
2018-12-03T00:18:36.702Z,99.99
2018-12-03T00:19:46.630Z,99.99
2018-12-03T00:20:56.756Z,99.99
2018-12-03T00:22:06.882Z,99.99
2018-12-03T00:23:17.120Z,99.99
2018-12-03T00:24:27.297Z,99.99
2018-12-03T00:25:37.405Z,99.99
2018-12-03T00:26:47.536Z,99.99
2018-12-03T00:27:57.655Z,99.99
2018-12-03T00:29:07.791Z,99.99
2018-12-03T00:30:17.975Z,99.99
2018-12-03T00:31:28.124Z,99.99
2018-12-03T00:32:38.271Z,99.99
2018-12-03T00:33:48.152Z,99.99
2018-12-03T00:34:58.053Z,99.99
2018-12-03T00:36:08.947Z,99.99
2018-12-03T00:37:19.064Z,99.99
2018-12-03T00:38:28.945Z,99.99
2018-12-03T00:39:39.066Z,99.99
2018-12-03T00:40:48.675Z,99.99
2018-12-03T00:41:58.910Z,99.99
2018-12-03T00:43:09.061Z,99.99
2018-12-03T00:44:18.688Z,99.99
2018-12-03T00:45:28.827Z,99.99
2018-12-03T00:46:38.949Z,99.99
2018-12-03T00:47:49.467Z,99.99
2018-12-03T00:48:59.595Z,99.99
2018-12-03T00:50:09.690Z,99.99
2018-12-03T00:51:19.817Z,99.99
2018-12-03T00:52:29.946Z,99.99
2018-12-03T00:53:40.079Z,99.99
2018-12-03T00:54:49.949Z,99.99
2018-12-03T00:56:00.096Z,99.99
2018-12-03T00:57:10.242Z,99.99
2018-12-03T00:58:20.118Z,99.99
2018-12-03T00:59:30.247Z,99.99
2018-12-03T01:00:40.384Z,99.99
2018-12-03T01:01:50.606Z,99.99
2018-12-03T01:03:00.735Z,99.99
2018-12-03T01:04:10.606Z,99.99
2018-12-03T01:05:20.740Z,99.99
2018-12-03T01:06:30.652Z,99.99
2018-12-03T01:07:40.795Z,99.99
2018-12-03T01:08:50.936Z,99.99
2018-12-03T01:10:01.503Z,99.99
2018-12-03T01:11:11.630Z,99.99
2018-12-03T01:12:21.501Z,99.99
2018-12-03T01:13:31.332Z,99.99
2018-12-03T01:14:41.467Z,99.99
2018-12-03T01:15:51.300Z,99.99
2018-12-03T01:17:01.490Z,99.99
2018-12-03T01:18:11.596Z,99.99
2018-12-03T01:19:21.747Z,99.99
2018-12-03T01:20:31.895Z,99.99
2018-12-03T01:21:42.068Z,99.99
2018-12-03T01:22:52.177Z,99.99
2018-12-03T01:24:02.297Z,99.99
2018-12-03T01:25:12.151Z,99.99
2018-12-03T01:26:21.749Z,99.99
2018-12-03T01:27:31.888Z,99.99
2018-12-03T01:28:42.070Z,99.99
2018-12-03T01:29:52.210Z,99.99
2018-12-03T01:31:03.080Z,99.99
2018-12-03T01:32:13.203Z,99.99
2018-12-03T01:33:23.330Z,99.99
2018-12-03T01:34:33.491Z,99.99
2018-12-03T01:35:43.610Z,99.99
2018-12-03T01:36:53.743Z,99.99
2018-12-03T01:38:05.891Z,99.99
2018-12-03T01:39:16.027Z,99.99
2018-12-03T01:40:26.197Z,99.99
2018-12-03T01:41:36.052Z,99.99
2018-12-03T01:42:46.187Z,99.99
2018-12-03T01:43:56.054Z,99.99
2018-12-03T01:45:06.543Z,99.99
2018-12-03T01:46:16.467Z,99.99
2018-12-03T01:47:26.593Z,99.99
2018-12-03T01:48:36.730Z,99.99
2018-12-03T01:49:46.861Z,99.99
2018-12-03T01:50:56.975Z,99.99
2018-12-03T01:52:06.891Z,99.99
2018-12-03T01:53:17.027Z,99.99
2018-12-03T01:54:26.894Z,99.99
2018-12-03T01:55:37.023Z,99.99
2018-12-03T01:56:47.139Z,99.99
2018-12-03T01:57:56.965Z,99.99
2018-12-03T01:59:08.445Z,99.99
2018-12-03T02:00:18.580Z,99.99
2018-12-03T02:01:28.707Z,99.99
2018-12-03T02:02:38.874Z,99.99
2018-12-03T02:03:49.144Z,99.99
2018-12-03T02:04:59.340Z,99.99
2018-12-03T02:06:09.515Z,99.99
2018-12-03T02:07:19.639Z,99.99
2018-12-03T02:08:29.761Z,99.99
2018-12-03T02:09:39.977Z,99.99
2018-12-03T02:10:49.850Z,99.99
2018-12-03T02:11:59.982Z,99.99
2018-12-03T02:13:10.122Z,99.99
2018-12-03T02:14:20.272Z,99.99
2018-12-03T02:15:30.418Z,99.99
2018-12-03T02:16:40.585Z,99.99
2018-12-03T02:17:50.468Z,99.99
2018-12-03T02:19:00.317Z,99.99
2018-12-03T02:20:10.466Z,99.99
2018-12-03T02:21:20.300Z,99.99
2018-12-03T02:22:30.424Z,99.99
2018-12-03T02:23:40.569Z,99.99
2018-12-03T02:24:50.905Z,99.99
2018-12-03T02:26:01.028Z,99.99
2018-12-03T02:27:10.941Z,99.99
2018-12-03T02:28:21.058Z,99.99
2018-12-03T02:29:31.228Z,99.99
2018-12-03T02:30:41.410Z,99.99
2018-12-03T02:31:51.558Z,99.99
2018-12-03T02:33:01.189Z,99.99
2018-12-03T02:34:11.558Z,99.99
2018-12-03T02:35:21.673Z,99.99
2018-12-03T02:36:31.796Z,99.99
2018-12-03T02:37:41.684Z,99.99
2018-12-03T02:38:52.866Z,99.99
2018-12-03T02:40:05.587Z,99.99
2018-12-03T02:41:15.712Z,99.99
2018-12-03T02:42:25.868Z,99.99
2018-12-03T02:43:35.737Z,99.99
2018-12-03T02:44:46.133Z,99.99
2018-12-03T02:45:56.270Z,99.99
2018-12-03T02:47:07.623Z,99.99
2018-12-03T02:48:17.492Z,99.99
2018-12-03T02:49:27.615Z,99.99
2018-12-03T02:50:37.556Z,99.99
2018-12-03T02:51:47.441Z,99.99
2018-12-03T02:52:57.560Z,99.99
2018-12-03T02:54:07.668Z,99.99
2018-12-03T02:55:17.785Z,99.99
2018-12-03T02:56:28.347Z,99.99
2018-12-03T02:57:38.261Z,99.99
2018-12-03T02:58:48.379Z,99.99
2018-12-03T02:59:58.518Z,99.99
2018-12-03T03:01:08.660Z,99.99
2018-12-03T03:02:18.827Z,99.99
2018-12-03T03:34:42.998Z,94.18
2018-12-03T03:35:53.052Z,94.46
2018-12-03T03:37:03.257Z,95.5
2018-12-03T03:38:13.322Z,95.97
2018-12-03T03:39:23.490Z,97.3
2018-12-03T03:40:33.427Z,98.15
2018-12-03T03:41:43.486Z,98.63
2018-12-03T03:42:53.285Z,99.24
2018-12-03T03:44:03.336Z,99.9
2018-12-03T03:45:13.411Z,99.99
2018-12-03T03:46:23.579Z,99.99
2018-12-03T03:47:33.647Z,99.99
2018-12-03T03:48:43.459Z,99.99
2018-12-03T03:49:53.506Z,99.99
2018-12-03T03:51:03.322Z,99.99
2018-12-03T03:52:13.441Z,99.99
2018-12-03T03:53:23.509Z,99.99
2018-12-03T03:54:33.570Z,99.99
2018-12-03T03:55:43.634Z,99.99
2018-12-03T03:56:53.715Z,99.99
2018-12-03T03:58:03.316Z,99.99
2018-12-03T03:59:13.123Z,99.99
2018-12-03T04:00:23.187Z,99.99
2018-12-03T04:01:33.246Z,99.99
2018-12-03T04:02:43.110Z,99.99
2018-12-03T04:03:53.262Z,99.99
2018-12-03T04:05:03.834Z,99.99
2018-12-03T04:06:13.937Z,99.99
2018-12-03T04:07:24.016Z,99.99
2018-12-03T04:08:33.821Z,99.99
2018-12-03T04:09:43.870Z,99.99
2018-12-03T04:10:53.695Z,99.99
2018-12-03T04:12:05.854Z,99.99
2018-12-03T04:13:15.621Z,99.99
2018-12-03T04:14:25.715Z,99.99
2018-12-03T04:15:35.840Z,99.99
2018-12-03T04:16:45.909Z,99.99
2018-12-03T04:17:55.975Z,99.99
2018-12-03T04:19:06.638Z,99.99
2018-12-03T04:20:16.450Z,99.99
2018-12-03T04:21:26.547Z,99.99
2018-12-03T04:22:36.609Z,99.99
2018-12-03T04:23:46.720Z,99.99
2018-12-03T04:24:56.777Z,99.99
2018-12-03T04:26:06.872Z,99.99
2018-12-03T04:27:16.931Z,99.99
2018-12-03T04:28:26.996Z,99.99
2018-12-03T04:29:37.107Z,99.99
2018-12-03T04:30:47.166Z,99.99
2018-12-03T04:31:57.246Z,99.99
2018-12-03T04:33:07.355Z,99.99
2018-12-03T04:34:17.159Z,99.99
2018-12-03T04:35:27.015Z,99.99
2018-12-03T04:36:37.101Z,99.99
2018-12-03T04:37:47.222Z,99.99
2018-12-03T04:38:57.032Z,99.99
2018-12-03T04:40:08.462Z,99.99
2018-12-03T04:41:18.551Z,99.99
2018-12-03T04:42:28.645Z,99.99
2018-12-03T04:43:38.720Z,99.99
2018-12-03T04:44:48.809Z,99.99
2018-12-03T04:45:58.883Z,99.99
2018-12-03T04:47:09.994Z,99.99
2018-12-03T04:48:19.792Z,99.99
2018-12-03T04:49:30.031Z,99.99
2018-12-03T04:50:39.915Z,99.99
2018-12-03T04:51:49.977Z,99.99
2018-12-03T04:53:00.032Z,99.99
2018-12-03T04:54:10.098Z,99.99
2018-12-03T04:55:20.481Z,99.99
2018-12-03T04:56:30.606Z,99.99
2018-12-03T04:57:40.691Z,99.99
2018-12-03T04:58:50.513Z,99.99
2018-12-03T05:00:00.595Z,99.99
2018-12-03T05:01:10.420Z,99.99
2018-12-03T05:02:20.238Z,99.99
2018-12-03T05:03:30.051Z,99.99
2018-12-03T05:04:40.141Z,99.99
2018-12-03T05:05:50.820Z,99.99
2018-12-03T05:07:01.094Z,99.99
2018-12-03T05:08:10.986Z,99.99
2018-12-03T05:09:21.053Z,99.99
2018-12-03T05:10:31.440Z,99.99
2018-12-03T05:11:41.493Z,99.99
2018-12-03T05:12:51.564Z,99.99
2018-12-03T05:14:01.578Z,99.99
2018-12-03T05:15:11.662Z,99.99
2018-12-03T05:16:21.539Z,99.99
2018-12-03T05:17:31.612Z,99.99
2018-12-03T05:18:41.416Z,99.99
2018-12-03T05:19:51.483Z,99.99
2018-12-03T05:21:01.541Z,99.99
2018-12-03T05:22:11.601Z,99.99
2018-12-03T05:23:21.686Z,99.99
2018-12-03T05:24:31.771Z,99.99
2018-12-03T05:25:41.823Z,99.99
2018-12-03T05:26:51.611Z,99.99
2018-12-03T05:28:01.789Z,99.99
2018-12-03T05:29:11.597Z,99.99
2018-12-03T05:30:21.436Z,99.99
2018-12-03T05:31:31.504Z,99.99
2018-12-03T05:32:41.648Z,99.99
2018-12-03T05:33:51.734Z,99.99
2018-12-03T05:35:02.326Z,99.99
2018-12-03T05:36:12.389Z,99.99
2018-12-03T05:37:22.185Z,99.99
2018-12-03T05:38:32.246Z,99.99
2018-12-03T05:39:42.354Z,99.99
2018-12-03T05:40:52.656Z,99.99
2018-12-03T05:42:03.152Z,99.99
2018-12-03T05:43:13.217Z,99.99
2018-12-03T05:44:23.297Z,99.99
2018-12-03T05:45:33.344Z,99.99
2018-12-03T05:46:43.426Z,99.99
2018-12-03T05:47:53.486Z,99.99
2018-12-03T05:49:03.045Z,99.99
2018-12-03T05:50:12.859Z,99.99
2018-12-03T05:51:22.898Z,99.99
2018-12-03T05:52:32.962Z,99.99
2018-12-03T05:53:43.255Z,99.99
2018-12-03T05:54:53.323Z,99.99
2018-12-03T05:56:03.399Z,99.99
2018-12-03T05:57:13.529Z,99.99
2018-12-03T05:58:23.820Z,99.99
2018-12-03T05:59:33.880Z,99.99
2018-12-03T06:00:43.944Z,99.99
2018-12-03T06:01:54.013Z,99.99
2018-12-03T06:03:04.079Z,99.99
2018-12-03T06:04:13.933Z,99.99
2018-12-03T06:05:24.002Z,99.99
2018-12-03T06:06:34.807Z,99.99
2018-12-03T06:07:44.900Z,99.99
2018-12-03T06:08:55.225Z,99.99
2018-12-03T06:10:06.222Z,99.99
2018-12-03T06:11:16.256Z,99.99
2018-12-03T06:12:26.564Z,99.99
2018-12-03T06:13:36.639Z,99.99
2018-12-03T06:14:46.809Z,99.99
2018-12-03T06:15:56.880Z,99.99
2018-12-03T06:17:09.018Z,99.99
2018-12-03T06:18:19.122Z,99.99
2018-12-03T06:19:29.187Z,99.99
2018-12-03T06:20:39.006Z,99.99
2018-12-03T06:21:48.817Z,99.99
2018-12-03T06:22:58.908Z,99.99
2018-12-03T06:24:08.976Z,99.99
2018-12-03T06:25:19.062Z,99.99
2018-12-03T06:26:28.945Z,99.99
2018-12-03T06:27:39.021Z,99.99
2018-12-03T06:28:49.129Z,99.99
2018-12-03T06:29:59.203Z,99.99
2018-12-03T06:31:09.270Z,99.99
2018-12-03T06:32:19.509Z,99.99
2018-12-03T06:33:29.571Z,99.99
2018-12-03T06:34:39.695Z,99.99
2018-12-03T06:35:49.497Z,99.99
2018-12-03T06:36:59.561Z,99.99
2018-12-03T06:38:15.128Z,99.99
2018-12-03T06:39:25.136Z,99.99
2018-12-03T06:40:35.479Z,99.99
2018-12-03T06:41:45.528Z,99.99
2018-12-03T06:42:55.590Z,99.99
2018-12-03T06:44:05.665Z,99.99
2018-12-03T06:45:15.463Z,99.99
2018-12-03T06:46:25.262Z,99.99
2018-12-03T06:47:35.198Z,99.99
2018-12-03T06:48:45.269Z,99.99
2018-12-03T06:49:55.595Z,99.99
2018-12-03T06:51:05.860Z,99.99
2018-12-03T06:52:15.682Z,99.99
2018-12-03T06:53:25.757Z,99.99
2018-12-03T06:54:35.827Z,99.99
2018-12-03T06:55:45.632Z,99.99
2018-12-03T06:56:55.661Z,99.99
2018-12-03T06:58:06.512Z,99.99
2018-12-03T06:59:16.339Z,99.99
2018-12-03T07:00:26.160Z,99.99
2018-12-03T07:01:36.225Z,99.99
2018-12-03T07:02:46.556Z,99.99
2018-12-03T07:03:56.637Z,99.99
2018-12-03T07:05:06.744Z,99.99
2018-12-03T07:06:16.807Z,99.99
2018-12-03T07:07:26.851Z,99.99
2018-12-03T07:08:36.640Z,99.99
2018-12-03T07:09:46.702Z,99.99
2018-12-03T07:10:58.026Z,99.99
2018-12-03T07:12:10.350Z,99.99
2018-12-03T07:13:20.659Z,99.99
2018-12-03T07:14:30.774Z,99.99
2018-12-03T07:15:40.838Z,99.99
2018-12-03T07:16:50.898Z,99.99
2018-12-03T07:18:01.464Z,99.99
2018-12-03T07:19:11.264Z,99.99
2018-12-03T07:20:21.582Z,99.99
2018-12-03T07:21:31.371Z,99.99
2018-12-03T07:22:41.173Z,99.99
2018-12-03T07:23:51.247Z,99.99
2018-12-03T07:25:01.312Z,99.99
2018-12-03T07:26:10.863Z,99.99
2018-12-03T07:27:22.180Z,99.99
2018-12-03T07:28:32.259Z,99.99
2018-12-03T07:29:42.310Z,99.99
2018-12-03T07:30:55.889Z,99.99
2018-12-03T07:32:06.025Z,99.99
2018-12-03T07:33:16.092Z,99.99
2018-12-03T07:34:26.139Z,99.99
2018-12-03T07:35:36.256Z,99.99
2018-12-03T07:36:45.805Z,99.99
2018-12-03T07:37:55.879Z,99.99
2018-12-03T07:39:05.951Z,99.99
2018-12-03T07:40:16.023Z,99.99
2018-12-03T07:41:26.096Z,99.99
2018-12-03T07:42:35.922Z,99.99
2018-12-03T07:43:45.747Z,99.99
2018-12-03T07:44:55.838Z,99.99
2018-12-03T07:46:06.088Z,99.99
2018-12-03T07:47:16.157Z,99.99
2018-12-03T07:48:25.970Z,99.99
2018-12-03T07:49:35.765Z,99.99
2018-12-03T07:50:45.833Z,99.99
2018-12-03T07:51:55.655Z,99.99
2018-12-03T07:53:06.207Z,99.99
2018-12-03T07:54:16.270Z,99.99
2018-12-03T07:55:26.093Z,99.99
2018-12-03T07:56:36.155Z,99.99
2018-12-03T07:57:46.014Z,99.99
2018-12-03T07:58:55.842Z,99.99
2018-12-03T08:00:06.357Z,99.99
2018-12-03T08:01:17.475Z,99.99
2018-12-03T08:02:27.558Z,99.99
2018-12-03T08:03:37.637Z,99.99
2018-12-03T08:04:47.703Z,99.99
2018-12-03T08:05:57.521Z,99.99
2018-12-03T08:07:07.328Z,99.99
2018-12-03T08:08:17.159Z,99.99
2018-12-03T08:09:27.236Z,99.99
2018-12-03T08:10:37.056Z,99.99
2018-12-03T08:11:47.121Z,99.99
2018-12-03T08:12:57.187Z,99.99
2018-12-03T08:14:07.257Z,99.99
2018-12-03T08:15:17.337Z,99.99
2018-12-03T08:16:27.408Z,99.99
2018-12-03T08:17:37.470Z,99.99
2018-12-03T08:18:47.567Z,99.99
2018-12-03T08:19:59.060Z,99.99
2018-12-03T08:21:08.875Z,99.99
2018-12-03T08:22:18.682Z,99.99
2018-12-03T08:23:28.503Z,99.99
2018-12-03T08:24:38.592Z,99.99
2018-12-03T08:25:48.657Z,99.99
2018-12-03T08:26:58.717Z,99.99
2018-12-03T08:28:08.802Z,99.99
2018-12-03T08:29:18.898Z,99.99
2018-12-03T08:30:28.980Z,99.99
2018-12-03T08:31:38.767Z,99.99
2018-12-03T08:32:48.848Z,99.99
2018-12-03T08:33:58.942Z,99.99
2018-12-03T08:35:09.253Z,99.99
2018-12-03T08:36:19.300Z,99.99
2018-12-03T08:37:29.372Z,99.99
2018-12-03T08:38:39.431Z,99.99
2018-12-03T08:39:49.506Z,99.99
2018-12-03T08:41:00.040Z,99.99
2018-12-03T08:42:10.093Z,99.99
2018-12-03T08:43:20.172Z,99.99
2018-12-03T08:44:30.252Z,99.99
2018-12-03T08:45:40.319Z,99.99
2018-12-03T08:46:50.615Z,99.99
2018-12-03T08:48:03.389Z,99.99
2018-12-03T08:49:13.464Z,99.99
2018-12-03T08:50:24.610Z,99.99
2018-12-03T08:51:34.731Z,99.99
2018-12-03T08:52:44.626Z,99.99
2018-12-03T08:53:54.442Z,99.99
2018-12-03T08:55:04.763Z,99.99
2018-12-03T08:56:14.830Z,99.99
2018-12-03T08:57:24.925Z,99.99
2018-12-03T08:58:35.169Z,99.99
2018-12-03T08:59:44.470Z,99.99
2018-12-03T09:00:54.595Z,99.99
2018-12-03T09:02:05.260Z,99.99
2018-12-03T09:03:15.329Z,99.99
2018-12-03T09:04:25.428Z,99.99
2018-12-03T09:05:35.225Z,99.99
2018-12-03T09:06:45.031Z,99.99
2018-12-03T09:07:55.108Z,99.99
2018-12-03T09:09:05.825Z,99.99
2018-12-03T09:10:15.905Z,99.99
2018-12-03T09:11:25.726Z,99.99
2018-12-03T09:12:35.798Z,99.99
2018-12-03T09:13:45.693Z,99.99
2018-12-03T09:14:55.766Z,99.99
2018-12-03T09:16:05.874Z,99.83
2018-12-03T09:17:15.927Z,99.99
2018-12-03T09:18:25.984Z,99.99
2018-12-03T09:19:35.527Z,99.99
2018-12-03T09:20:45.620Z,99.99
2018-12-03T09:21:55.679Z,99.99
2018-12-03T09:23:07.444Z,99.99
2018-12-03T09:24:17.505Z,99.99
2018-12-03T09:25:27.564Z,99.99
2018-12-03T09:26:37.367Z,99.99
2018-12-03T09:27:47.706Z,99.97
2018-12-03T09:28:57.528Z,99.88
2018-12-03T09:30:08.386Z,99.99
2018-12-03T09:31:18.451Z,99.99
2018-12-03T09:32:28.568Z,99.99
2018-12-03T09:33:38.701Z,99.99
2018-12-03T09:34:48.792Z,99.99
2018-12-03T09:35:58.677Z,99.99
2018-12-03T09:37:10.645Z,99.99
2018-12-03T09:38:20.455Z,99.99
2018-12-03T09:39:30.592Z,99.99
2018-12-03T09:40:40.673Z,99.99
2018-12-03T09:41:50.467Z,99.99
2018-12-03T09:43:00.556Z,99.99
2018-12-03T09:44:10.626Z,99.99
2018-12-03T09:45:20.928Z,99.99
2018-12-03T09:46:30.999Z,99.99
2018-12-03T09:47:41.178Z,99.99
2018-12-03T09:48:51.275Z,99.99
2018-12-03T09:50:01.155Z,99.99
2018-12-03T09:51:11.688Z,99.99
2018-12-03T09:52:21.737Z,99.99
2018-12-03T09:53:31.547Z,99.99
2018-12-03T09:54:41.636Z,99.99
2018-12-03T09:55:51.695Z,99.99
2018-12-03T09:57:01.777Z,99.99
2018-12-03T09:58:12.766Z,99.99
2018-12-03T09:59:22.572Z,99.99
2018-12-03T10:00:32.635Z,99.99
2018-12-03T10:01:42.705Z,99.99
2018-12-03T10:02:52.811Z,99.99
2018-12-03T10:04:02.926Z,99.99
2018-12-03T10:05:12.721Z,99.99
2018-12-03T10:06:22.545Z,99.99
2018-12-03T10:07:32.599Z,99.99
2018-12-03T10:08:42.677Z,99.99
2018-12-03T10:09:52.966Z,99.99
2018-12-03T10:11:03.312Z,99.99
2018-12-03T10:12:18.175Z,99.99
2018-12-03T10:13:29.117Z,99.99
2018-12-03T10:14:39.173Z,99.99
2018-12-03T10:15:48.995Z,99.99
2018-12-03T10:16:59.070Z,99.99
2018-12-03T10:18:10.968Z,99.99
2018-12-03T10:19:21.052Z,99.99
2018-12-03T10:20:31.170Z,99.99
2018-12-03T10:21:45.144Z,99.99
2018-12-03T10:22:55.385Z,99.99
2018-12-03T10:24:06.750Z,99.99
2018-12-03T10:25:16.822Z,99.88
2018-12-03T10:26:26.881Z,99.88
2018-12-03T10:27:36.953Z,99.97
2018-12-03T10:28:46.767Z,99.99
2018-12-03T10:29:57.090Z,99.99
2018-12-03T10:31:07.403Z,99.99
2018-12-03T10:32:17.719Z,99.99
2018-12-03T10:33:27.798Z,99.99
2018-12-03T10:34:37.975Z,99.99
2018-12-03T10:35:47.778Z,99.99
2018-12-03T10:36:57.855Z,99.99
2018-12-03T10:38:07.994Z,99.88
2018-12-03T10:39:18.280Z,99.99
2018-12-03T10:40:28.426Z,99.99
2018-12-03T10:41:37.987Z,99.99
2018-12-03T10:42:48.068Z,99.99
2018-12-03T10:43:58.114Z,99.99
2018-12-03T10:45:08.186Z,99.99
2018-12-03T10:46:18.015Z,99.99
2018-12-03T10:47:28.091Z,99.99
2018-12-03T10:48:37.653Z,99.99
2018-12-03T10:49:47.711Z,99.78
2018-12-03T10:50:57.775Z,99.99
2018-12-03T10:52:07.839Z,99.99
2018-12-03T10:53:17.896Z,99.99
2018-12-03T10:54:27.964Z,99.99
2018-12-03T10:55:38.051Z,99.84
2018-12-03T10:56:48.112Z,99.99
2018-12-03T10:57:58.188Z,99.99
2018-12-03T10:59:10.599Z,99.99
2018-12-03T11:00:20.654Z,99.99
2018-12-03T11:01:30.931Z,99.99
2018-12-03T11:02:40.946Z,99.99
2018-12-03T11:03:51.078Z,99.99
2018-12-03T11:05:01.153Z,99.99
2018-12-03T11:06:11.221Z,99.99
2018-12-03T11:07:21.330Z,99.99
2018-12-03T11:08:31.712Z,99.99
2018-12-03T11:09:41.941Z,99.99
2018-12-03T11:10:52.311Z,99.99
2018-12-03T11:12:02.117Z,99.99
2018-12-03T11:13:12.184Z,99.99
2018-12-03T11:14:21.503Z,99.99
2018-12-03T11:15:31.607Z,99.99
2018-12-03T11:16:41.736Z,99.99
2018-12-03T11:17:51.572Z,99.99
2018-12-03T11:19:01.642Z,99.99
2018-12-03T11:20:11.708Z,99.99
2018-12-03T11:21:21.837Z,99.99
2018-12-03T11:22:31.697Z,99.99
2018-12-03T11:23:41.753Z,99.99
2018-12-03T11:24:51.576Z,99.99
2018-12-03T11:26:02.904Z,99.99
2018-12-03T11:27:13.031Z,99.99
2018-12-03T11:28:23.114Z,99.99
2018-12-03T11:29:33.176Z,99.99
2018-12-03T11:30:43.248Z,99.99
2018-12-03T11:31:53.337Z,99.99
2018-12-03T11:33:03.389Z,99.99
2018-12-03T11:34:13.466Z,99.99
2018-12-03T11:35:23.297Z,99.99
2018-12-03T11:36:33.378Z,99.99
2018-12-03T11:37:43.438Z,99.99
2018-12-03T11:38:53.532Z,99.99
2018-12-03T11:40:03.606Z,99.99
2018-12-03T11:41:13.929Z,99.99
2018-12-03T11:42:23.881Z,99.99
2018-12-03T11:43:33.944Z,99.99
2018-12-03T11:44:44.095Z,99.99
2018-12-03T11:45:54.515Z,99.99
2018-12-03T11:47:04.344Z,99.99
2018-12-03T11:48:14.446Z,99.99
2018-12-03T11:49:24.369Z,99.99
2018-12-03T11:50:34.469Z,99.99
2018-12-03T11:51:44.776Z,99.99
2018-12-03T11:52:54.866Z,99.97
2018-12-03T11:54:19.638Z,99.99
2018-12-03T11:55:29.568Z,99.99
2018-12-03T11:56:39.678Z,99.99
2018-12-03T11:57:50.201Z,99.64
2018-12-03T11:59:00.922Z,99.99
2018-12-03T12:00:11.223Z,99.64
2018-12-03T12:01:21.459Z,99.99
2018-12-03T12:02:31.282Z,99.99
2018-12-03T12:03:45.388Z,99.99
2018-12-03T12:04:55.453Z,99.99
2018-12-03T12:06:05.264Z,99.99
2018-12-03T12:07:15.319Z,99.99
2018-12-03T12:08:25.448Z,99.99
2018-12-03T12:09:35.531Z,99.99
2018-12-03T12:10:45.325Z,99.99
2018-12-03T12:11:55.454Z,99.99
2018-12-03T12:13:05.554Z,99.99
2018-12-03T12:14:15.630Z,99.99
2018-12-03T12:15:25.722Z,99.99
2018-12-03T12:16:35.575Z,99.99
2018-12-03T12:17:45.456Z,99.99
2018-12-03T12:18:55.779Z,99.99
2018-12-03T12:20:06.368Z,99.99
2018-12-03T12:21:16.438Z,99.99
2018-12-03T12:22:26.502Z,99.99
2018-12-03T12:23:36.572Z,99.99
2018-12-03T12:24:46.659Z,99.99
2018-12-03T12:25:56.489Z,99.99
2018-12-03T12:27:08.122Z,99.99
2018-12-03T12:28:18.206Z,99.99
2018-12-03T12:29:28.083Z,99.99
2018-12-03T12:30:38.149Z,99.93
2018-12-03T12:31:47.947Z,99.99
2018-12-03T12:32:58.038Z,99.99
2018-12-03T12:34:08.760Z,99.99
2018-12-03T12:35:18.820Z,99.99
2018-12-03T12:36:28.913Z,99.99
2018-12-03T12:37:38.710Z,99.99
2018-12-03T12:38:48.795Z,99.99
2018-12-03T12:39:58.878Z,99.99
2018-12-03T12:41:08.952Z,99.88
2018-12-03T12:42:19.018Z,99.99
2018-12-03T12:43:35.097Z,99.99
2018-12-03T12:44:44.899Z,99.99
2018-12-03T12:45:55.026Z,99.99
2018-12-03T12:47:04.644Z,99.99
2018-12-03T12:48:14.735Z,99.99
2018-12-03T12:49:24.551Z,99.99
2018-12-03T12:50:34.823Z,99.99
2018-12-03T12:51:44.914Z,99.99
2018-12-03T12:52:59.392Z,99.99
2018-12-03T12:54:09.217Z,99.99
2018-12-03T12:55:19.329Z,99.99
2018-12-03T12:56:29.195Z,99.99
2018-12-03T12:57:39.260Z,99.99
2018-12-03T12:58:49.394Z,99.99
2018-12-03T12:59:59.465Z,99.99
2018-12-03T13:01:09.791Z,99.99
2018-12-03T13:02:19.915Z,99.99
2018-12-03T13:03:30.058Z,99.99
2018-12-03T13:04:40.118Z,99.98
2018-12-03T13:05:50.176Z,99.99
2018-12-03T13:07:03.451Z,99.99
2018-12-03T13:08:13.519Z,99.99
2018-12-03T13:09:23.591Z,99.99
2018-12-03T13:10:33.698Z,99.99
2018-12-03T13:11:43.762Z,99.99
2018-12-03T13:12:53.824Z,99.99
2018-12-03T13:14:03.917Z,99.99
2018-12-03T13:15:14.038Z,99.99
2018-12-03T13:16:24.161Z,99.69
2018-12-03T13:17:33.962Z,99.88
2018-12-03T13:18:43.808Z,99.79
2018-12-03T13:19:53.884Z,99.84
2018-12-03T13:21:03.952Z,99.88
2018-12-03T13:22:13.884Z,99.99
2018-12-03T13:23:24.142Z,99.99
2018-12-03T13:24:34.103Z,99.99
2018-12-03T13:25:44.180Z,99.99
2018-12-03T13:26:54.008Z,99.99
2018-12-03T13:28:05.494Z,99.99
2018-12-03T13:29:15.298Z,99.99
2018-12-03T13:30:25.375Z,99.99
2018-12-03T13:31:35.456Z,99.99
2018-12-03T13:32:45.530Z,99.99
2018-12-03T13:33:55.859Z,99.99
2018-12-03T13:35:06.020Z,99.99
2018-12-03T13:36:16.125Z,99.99
2018-12-03T13:37:25.966Z,99.99
2018-12-03T13:38:35.780Z,99.99
2018-12-03T13:39:45.884Z,99.99
2018-12-03T13:40:55.705Z,99.99
2018-12-03T13:42:05.789Z,99.99
2018-12-03T13:43:15.868Z,99.99
2018-12-03T13:44:26.021Z,99.99
2018-12-03T13:45:36.036Z,99.99
2018-12-03T13:46:45.851Z,99.99
2018-12-03T13:47:55.666Z,99.99
2018-12-03T13:49:05.691Z,99.99
2018-12-03T13:50:15.519Z,99.99
2018-12-03T13:51:25.590Z,99.99
2018-12-03T13:52:35.880Z,99.99
2018-12-03T13:53:45.983Z,99.99
2018-12-03T13:54:56.032Z,99.99
2018-12-03T13:56:05.818Z,99.99
2018-12-03T13:57:15.940Z,99.99
2018-12-03T13:58:26.038Z,99.99
2018-12-03T13:59:36.104Z,99.99
2018-12-03T14:00:46.172Z,99.99
2018-12-03T14:01:56.231Z,99.99
2018-12-03T14:03:06.052Z,99.99
2018-12-03T14:04:15.886Z,99.99
2018-12-03T14:05:25.962Z,99.99
2018-12-03T14:06:36.020Z,99.99
2018-12-03T14:07:46.086Z,99.99
2018-12-03T14:08:56.370Z,99.99
2018-12-03T14:10:09.166Z,99.99
2018-12-03T14:11:20.728Z,99.99
2018-12-03T14:12:30.616Z,99.99
2018-12-03T14:13:40.502Z,99.99
2018-12-03T14:14:50.327Z,99.99
2018-12-03T14:16:00.118Z,99.99
2018-12-03T14:17:10.082Z,99.99
2018-12-03T14:18:19.877Z,99.99
2018-12-03T14:19:30.062Z,99.99
2018-12-03T14:20:40.124Z,99.99
2018-12-03T14:21:50.228Z,99.99
2018-12-03T14:23:01.381Z,99.99
2018-12-03T14:24:11.458Z,99.99
2018-12-03T14:25:21.642Z,99.99
2018-12-03T14:26:31.711Z,99.99
2018-12-03T14:27:41.895Z,99.99
2018-12-03T14:28:52.090Z,99.99
2018-12-03T14:30:02.151Z,99.99
2018-12-03T14:31:12.299Z,99.99
2018-12-03T14:32:22.370Z,99.99
2018-12-03T14:33:32.439Z,99.99
2018-12-03T14:34:42.493Z,99.99
2018-12-03T14:35:52.562Z,99.99
2018-12-03T14:37:02.775Z,99.99
2018-12-03T14:38:12.838Z,99.99
2018-12-03T14:39:22.738Z,99.99
2018-12-03T14:40:32.820Z,99.99
2018-12-03T14:41:42.904Z,99.99
2018-12-03T14:42:52.441Z,99.99
2018-12-03T14:44:02.501Z,99.99
2018-12-03T14:45:12.670Z,99.99
2018-12-03T14:46:22.752Z,99.99
2018-12-03T14:47:32.584Z,99.99
2018-12-03T14:48:42.658Z,99.99
2018-12-03T14:49:52.715Z,99.99
2018-12-03T14:51:03.087Z,99.99
2018-12-03T14:52:13.161Z,99.99
2018-12-03T14:53:23.231Z,99.99
2018-12-03T14:54:33.350Z,99.99
2018-12-03T14:55:43.428Z,99.99
2018-12-03T14:56:53.235Z,99.99
2018-12-03T14:58:03.340Z,99.99
2018-12-03T14:59:13.172Z,99.99
2018-12-03T15:00:23.484Z,99.99
2018-12-03T15:01:33.622Z,99.99
2018-12-03T15:02:43.708Z,99.99
2018-12-03T15:03:53.806Z,99.99
2018-12-03T15:05:03.955Z,99.99
2018-12-03T15:06:14.049Z,99.99
2018-12-03T15:07:24.133Z,99.99
2018-12-03T15:08:34.200Z,99.99
2018-12-03T15:09:44.282Z,99.99
2018-12-03T15:10:54.383Z,99.99
2018-12-03T15:12:04.200Z,99.99
2018-12-03T15:13:14.311Z,99.99
2018-12-03T15:14:24.108Z,99.99
2018-12-03T15:15:33.918Z,99.99
2018-12-03T15:16:44.030Z,99.99
2018-12-03T15:17:54.081Z,99.99
2018-12-03T15:19:04.667Z,99.99
2018-12-03T15:20:19.103Z,99.99
2018-12-03T15:21:28.917Z,99.99
2018-12-03T15:22:38.994Z,99.99
2018-12-03T15:23:49.052Z,99.99
2018-12-03T15:24:59.116Z,99.99
2018-12-03T15:26:08.919Z,99.99
2018-12-03T15:27:19.015Z,99.99
2018-12-03T15:28:29.087Z,99.99
2018-12-03T15:29:39.153Z,99.99
2018-12-03T15:30:49.211Z,99.99
2018-12-03T15:31:59.025Z,99.99
2018-12-03T15:33:09.103Z,99.99
2018-12-03T15:34:19.193Z,99.99
2018-12-03T15:35:29.255Z,99.99